Agios Georgios I — SX9857 — position and weather

sailwx.info

Track history (hours):
 
Tides and Currents Weather Stations Pressure Air Temp Water Temp Dewpoint Dewpoint Depression Visibility Wind Speed Wind Dir Waves Ship Positions

Agios Georgios I

Last reported at 2014-Jul-25 01:13 UTC. Time now 2014-Jul-25 09:03 UTC.
Position N 37°51' E 025°33'.

Length 59 m; draft 5 m.

Type: Ship (hazmat cat B). MMSI: 239912000.

Date/timePositionNaut miles runAvg speedWind from/ knotsBaromVisibWave heightAir tempDewpointWater temp
2014-Jul-25 01:13N 37°51' E 025°33'7 7.4
2014-Jul-25 00:15N 37°45' E 025°29'5 7.4
2014-Jul-24 23:33N 37°40' E 025°25'8 7.8
2014-Jul-24 22:33N 37°33' E 025°21'6 5.5
2014-Jul-24 21:33N 37°28' E 025°20'0 0.0
2014-Jul-24 20:33N 37°28' E 025°20'1 0.7
2014-Jul-24 19:33N 37°27' E 025°19'1 0.7
2014-Jul-24 18:33N 37°28' E 025°20'0 0.0
2014-Jul-24 17:33N 37°28' E 025°20'0 0.0
2014-Jul-24 16:33N 37°28' E 025°20'1 0.7
2014-Jul-24 15:33N 37°27' E 025°19'8 7.9
2014-Jul-24 14:33N 37°20' E 025°16'9 8.8
2014-Jul-24 13:33N 37°12' E 025°10'7 6.9
2014-Jul-24 12:32N 37°05' E 025°09'0 0.2
2014-Jul-24 11:33N 37°05' E 025°09'0 0.0
2014-Jul-24 10:32N 37°05' E 025°09'0 0.0
2014-Jul-24 09:33N 37°05' E 025°09'0 0.0
2014-Jul-24 08:33N 37°05' E 025°09'0 0.0
2014-Jul-24 07:32N 37°05' E 025°09'0 0.0
2014-Jul-24 06:33N 37°05' E 025°09'0 0.0
2014-Jul-24 05:33N 37°05' E 025°09'1 0.6
2014-Jul-24 04:32N 37°06' E 025°08'0 0.0
2014-Jul-24 03:32N 37°06' E 025°08'0 0.0
2014-Jul-24 02:33N 37°06' E 025°08'0 0.0
2014-Jul-24 01:32N 37°06' E 025°08'0 0.0
2014-Jul-24 00:33N 37°06' E 025°08'0 0.0
2014-Jul-23 23:32N 37°06' E 025°08'5 4.9
2014-Jul-23 22:33N 37°09' E 025°12'7 7.5
2014-Jul-23 21:33N 37°07' E 025°21'1 1.3
2014-Jul-23 20:33N 37°06' E 025°22'0 0.4
2014-Jul-23 19:33N 37°06' E 025°22'0 0.0
2014-Jul-23 18:33N 37°06' E 025°22'0 0.0
2014-Jul-23 17:33N 37°06' E 025°22'0 0.0
2014-Jul-23 16:33N 37°06' E 025°22'1 0.7
2014-Jul-23 15:33N 37°06' E 025°22'0 0.0
2014-Jul-23 14:33N 37°06' E 025°22'0 0.0
2014-Jul-23 13:33N 37°06' E 025°22'7 6.9
2014-Jul-23 12:33N 37°12' E 025°17'8 8.3
2014-Jul-23 11:33N 37°17' E 025°09'8 8.3
2014-Jul-23 10:33N 37°23' E 025°02'5 5.2
2014-Jul-23 09:33N 37°26' E 024°56'0 0.0
2014-Jul-23 08:32N 37°26' E 024°56'0 0.0
2014-Jul-23 07:32N 37°26' E 024°56'0 0.0
2014-Jul-23 06:33N 37°26' E 024°56'0 0.0
2014-Jul-23 05:32N 37°26' E 024°56'0 0.0
2014-Jul-23 04:32N 37°26' E 024°56'1 1.1
2014-Jul-23 03:33N 37°27' E 024°57'7 5.9
2014-Jul-23 02:23N 37°32' E 024°52'7 8.4
2014-Jul-23 01:33N 37°32' E 024°43'9 8.5
2014-Jul-23 00:33N 37°32' E 024°32'8 8.3
2014-Jul-22 23:32N 37°31' E 024°22'8 7.6
2014-Jul-22 22:29N 37°32' E 024°12'18 9.0
2014-Jul-22 20:32N 37°38' E 023°51'8 8.1
2014-Jul-22 19:30N 37°41' E 023°42'8 8.3
2014-Jul-22 18:33N 37°49' E 023°38'8 8.2
2014-Jul-22 17:33N 37°56' E 023°35'1 0.9
2014-Jul-22 16:33N 37°57' E 023°35'0 0.0
2014-Jul-22 15:33N 37°57' E 023°35'0 0.0
2014-Jul-22 14:33N 37°57' E 023°35'0 0.0
2014-Jul-22 13:33N 37°57' E 023°35'0 0.0
2014-Jul-22 12:33N 37°57' E 023°35'0 0.0
2014-Jul-22 11:33N 37°57' E 023°35'0 0.0
2014-Jul-22 10:33N 37°57' E 023°35'0 0.0
2014-Jul-22 09:33N 37°57' E 023°35'0 0.0
2014-Jul-22 08:34N 37°57' E 023°35'0 0.0
2014-Jul-22 07:33N 37°57' E 023°35'0 0.0
2014-Jul-22 06:34N 37°57' E 023°35'0 0.0
2014-Jul-22 05:33N 37°57' E 023°35'4 4.3
2014-Jul-22 04:33N 37°53' E 023°37'9 8.5
2014-Jul-22 03:32N 37°46' E 023°42'9 8.0
2014-Jul-22 02:26N 37°39' E 023°49'24 8.4
2014-Jul-21 23:31N 37°30' E 024°18'9 8.8
2014-Jul-21 22:32N 37°31' E 024°29'9 8.7
2014-Jul-21 21:30N 37°31' E 024°41'8 8.5
2014-Jul-21 20:33N 37°32' E 024°51'5 8.3
2014-Jul-21 20:00N 37°31' E 024°56'4 8.8
2014-Jul-21 19:33N 37°27' E 024°58'1 1.3
2014-Jul-21 18:33N 37°26' E 024°57'0 0.0
2014-Jul-21 17:33N 37°26' E 024°57'0 0.0
2014-Jul-21 16:32N 37°26' E 024°57'0 0.0
2014-Jul-21 15:33N 37°26' E 024°57'0 0.0
2014-Jul-21 14:33N 37°26' E 024°57'0 0.0
2014-Jul-21 13:32N 37°26' E 024°57'0 0.0
2014-Jul-21 12:33N 37°26' E 024°57'0 0.0
2014-Jul-21 11:32N 37°26' E 024°57'0 0.0
2014-Jul-21 10:33N 37°26' E 024°57'0 0.0
2014-Jul-21 09:33N 37°26' E 024°57'0 0.0
2014-Jul-21 08:32N 37°26' E 024°57'0 0.0
2014-Jul-21 07:33N 37°26' E 024°57'0 0.0
2014-Jul-21 06:32N 37°26' E 024°57'0 0.0
2014-Jul-21 05:33N 37°26' E 024°57'1 1.4
2014-Jul-21 04:33N 37°25' E 024°58'2 1.8
2014-Jul-21 03:33N 37°26' E 024°56'6 5.7
2014-Jul-21 02:33N 37°27' E 025°03'9 9.4
2014-Jul-21 01:33N 37°27' E 025°15'3 3.5
2014-Jul-21 00:33N 37°28' E 025°20'0 0.0
2014-Jul-20 23:33N 37°28' E 025°20'0 0.0
2014-Jul-20 22:33N 37°28' E 025°20'0 0.0
2014-Jul-20 21:33N 37°28' E 025°20'0 0.0
2014-Jul-20 20:33N 37°28' E 025°20'0 0.0
2014-Jul-20 19:33N 37°28' E 025°20'4 3.8
2014-Jul-20 18:33N 37°28' E 025°15'8 7.5
2014-Jul-20 17:32N 37°32' E 025°07'9 8.4
2014-Jul-20 16:27N 37°38' E 024°58'  
2014-Jul-17 08:21N 37°38' E 025°22'6 7.0
2014-Jul-17 07:33N 37°33' E 025°19'5 4.7
2014-Jul-17 06:32N 37°28' E 025°20'0 0.0
2014-Jul-17 05:31N 37°28' E 025°20'0 0.0
2014-Jul-17 04:33N 37°28' E 025°20'0 0.0
2014-Jul-17 03:32N 37°28' E 025°20'2 2.1
2014-Jul-17 02:33N 37°27' E 025°17'7 7.1
2014-Jul-17 01:33N 37°20' E 025°18'8 8.2
2014-Jul-17 00:33N 37°12' E 025°21'5 5.4
2014-Jul-16 23:33N 37°06' E 025°22'0 0.0
2014-Jul-16 22:32N 37°06' E 025°22'0 0.0
2014-Jul-16 21:32N 37°06' E 025°22'0 0.3
2014-Jul-16 20:33N 37°06' E 025°22'0 0.3
2014-Jul-16 19:33N 37°06' E 025°22'0 0.0
2014-Jul-16 18:33N 37°06' E 025°22'0 0.0
2014-Jul-16 17:30N 37°06' E 025°22'0 0.0
2014-Jul-16 16:33N 37°06' E 025°22'3 3.2
2014-Jul-16 15:33N 37°09' E 025°20'8 7.7
2014-Jul-16 14:31N 37°08' E 025°09'3 3.0
2014-Jul-16 13:33N 37°05' E 025°09'0 0.0
2014-Jul-16 12:28N 37°05' E 025°09'0 0.0
2014-Jul-16 10:25N 37°05' E 025°09'0 0.0
2014-Jul-16 09:28N 37°05' E 025°09'0 0.0
2014-Jul-16 08:33N 37°05' E 025°09'0 0.0
2014-Jul-16 06:16N 37°05' E 025°09'0 0.0
2014-Jul-16 05:30N 37°05' E 025°09'0 0.0
2014-Jul-16 04:32N 37°05' E 025°09'1 0.6
2014-Jul-16 03:33N 37°05' E 025°08'0 0.0
2014-Jul-16 02:31N 37°05' E 025°08'0 0.0
2014-Jul-16 01:32N 37°05' E 025°08'0 0.0
2014-Jul-16 00:32N 37°05' E 025°08'0 0.2
2014-Jul-15 23:33N 37°05' E 025°08'8 7.4
2014-Jul-15 22:32N 37°13' E 025°08'8 8.0
2014-Jul-15 21:33N 37°21' E 025°08'9 8.9
2014-Jul-15 20:33N 37°30' E 025°09'3 2.7
2014-Jul-15 19:33N 37°32' E 025°09'0 0.0
2014-Jul-15 18:32N 37°32' E 025°09'0 0.0
2014-Jul-15 17:33N 37°32' E 025°09'0 0.0
2014-Jul-15 16:33N 37°32' E 025°09'7 6.8
2014-Jul-15 15:33N 37°29' E 025°02'5 5.1
2014-Jul-15 14:31N 37°26' E 024°56'0 0.0
2014-Jul-15 13:33N 37°26' E 024°56'0 0.0
2014-Jul-15 12:33N 37°26' E 024°56'0 0.0
2014-Jul-15 11:33N 37°26' E 024°56'0 0.0
2014-Jul-15 10:33N 37°26' E 024°56'7 5.1
2014-Jul-15 09:14N 37°31' E 024°51'6 8.5
2014-Jul-15 08:33N 37°31' E 024°44'9 8.5
2014-Jul-15 07:32N 37°31' E 024°33'42 8.5
2014-Jul-15 02:33N 37°42' E 023°41'9 8.9
2014-Jul-15 01:33N 37°49' E 023°36'  
Track history (hours):
 
Tides and Currents Weather Stations Pressure Air Temp Water Temp Dewpoint Dewpoint Depression Visibility Wind Speed Wind Dir Waves Ship Positions

Agios Georgios I

Last reported at 2014-Jul-25 01:13 UTC. Time now 2014-Jul-25 09:03 UTC.
Position N 37°51' E 025°33'.

Length 59 m; draft 5 m.

Type: Ship (hazmat cat B). MMSI: 239912000.

Date/timePositionNaut miles runAvg speedWind from/ knotsBaromVisibWave heightAir tempDewpointWater temp
2014-Jul-25 01:13N 37°51' E 025°33'7 7.4
2014-Jul-25 00:15N 37°45' E 025°29'5 7.4
2014-Jul-24 23:33N 37°40' E 025°25'8 7.8
2014-Jul-24 22:33N 37°33' E 025°21'6 5.5
2014-Jul-24 21:33N 37°28' E 025°20'0 0.0
2014-Jul-24 20:33N 37°28' E 025°20'1 0.7
2014-Jul-24 19:33N 37°27' E 025°19'1 0.7
2014-Jul-24 18:33N 37°28' E 025°20'0 0.0
2014-Jul-24 17:33N 37°28' E 025°20'0 0.0
2014-Jul-24 16:33N 37°28' E 025°20'1 0.7
2014-Jul-24 15:33N 37°27' E 025°19'8 7.9
2014-Jul-24 14:33N 37°20' E 025°16'9 8.8
2014-Jul-24 13:33N 37°12' E 025°10'7 6.9
2014-Jul-24 12:32N 37°05' E 025°09'0 0.2
2014-Jul-24 11:33N 37°05' E 025°09'0 0.0
2014-Jul-24 10:32N 37°05' E 025°09'0 0.0
2014-Jul-24 09:33N 37°05' E 025°09'0 0.0
2014-Jul-24 08:33N 37°05' E 025°09'0 0.0
2014-Jul-24 07:32N 37°05' E 025°09'0 0.0
2014-Jul-24 06:33N 37°05' E 025°09'0 0.0
2014-Jul-24 05:33N 37°05' E 025°09'1 0.6
2014-Jul-24 04:32N 37°06' E 025°08'0 0.0
2014-Jul-24 03:32N 37°06' E 025°08'0 0.0
2014-Jul-24 02:33N 37°06' E 025°08'0 0.0
2014-Jul-24 01:32N 37°06' E 025°08'0 0.0
2014-Jul-24 00:33N 37°06' E 025°08'0 0.0
2014-Jul-23 23:32N 37°06' E 025°08'5 4.9
2014-Jul-23 22:33N 37°09' E 025°12'7 7.5
2014-Jul-23 21:33N 37°07' E 025°21'1 1.3
2014-Jul-23 20:33N 37°06' E 025°22'0 0.4
2014-Jul-23 19:33N 37°06' E 025°22'0 0.0
2014-Jul-23 18:33N 37°06' E 025°22'0 0.0
2014-Jul-23 17:33N 37°06' E 025°22'0 0.0
2014-Jul-23 16:33N 37°06' E 025°22'1 0.7
2014-Jul-23 15:33N 37°06' E 025°22'0 0.0
2014-Jul-23 14:33N 37°06' E 025°22'0 0.0
2014-Jul-23 13:33N 37°06' E 025°22'7 6.9
2014-Jul-23 12:33N 37°12' E 025°17'8 8.3
2014-Jul-23 11:33N 37°17' E 025°09'8 8.3
2014-Jul-23 10:33N 37°23' E 025°02'5 5.2
2014-Jul-23 09:33N 37°26' E 024°56'0 0.0
2014-Jul-23 08:32N 37°26' E 024°56'0 0.0
2014-Jul-23 07:32N 37°26' E 024°56'0 0.0
2014-Jul-23 06:33N 37°26' E 024°56'0 0.0
2014-Jul-23 05:32N 37°26' E 024°56'0 0.0
2014-Jul-23 04:32N 37°26' E 024°56'1 1.1
2014-Jul-23 03:33N 37°27' E 024°57'7 5.9
2014-Jul-23 02:23N 37°32' E 024°52'7 8.4
2014-Jul-23 01:33N 37°32' E 024°43'9 8.5
2014-Jul-23 00:33N 37°32' E 024°32'8 8.3
2014-Jul-22 23:32N 37°31' E 024°22'8 7.6
2014-Jul-22 22:29N 37°32' E 024°12'18 9.0
2014-Jul-22 20:32N 37°38' E 023°51'8 8.1
2014-Jul-22 19:30N 37°41' E 023°42'8 8.3
2014-Jul-22 18:33N 37°49' E 023°38'8 8.2
2014-Jul-22 17:33N 37°56' E 023°35'1 0.9
2014-Jul-22 16:33N 37°57' E 023°35'0 0.0
2014-Jul-22 15:33N 37°57' E 023°35'0 0.0
2014-Jul-22 14:33N 37°57' E 023°35'0 0.0
2014-Jul-22 13:33N 37°57' E 023°35'0 0.0
2014-Jul-22 12:33N 37°57' E 023°35'0 0.0
2014-Jul-22 11:33N 37°57' E 023°35'0 0.0
2014-Jul-22 10:33N 37°57' E 023°35'0 0.0
2014-Jul-22 09:33N 37°57' E 023°35'0 0.0
2014-Jul-22 08:34N 37°57' E 023°35'0 0.0
2014-Jul-22 07:33N 37°57' E 023°35'0 0.0
2014-Jul-22 06:34N 37°57' E 023°35'0 0.0
2014-Jul-22 05:33N 37°57' E 023°35'4 4.3
2014-Jul-22 04:33N 37°53' E 023°37'9 8.5
2014-Jul-22 03:32N 37°46' E 023°42'9 8.0
2014-Jul-22 02:26N 37°39' E 023°49'24 8.4
2014-Jul-21 23:31N 37°30' E 024°18'9 8.8
2014-Jul-21 22:32N 37°31' E 024°29'9 8.7
2014-Jul-21 21:30N 37°31' E 024°41'8 8.5
2014-Jul-21 20:33N 37°32' E 024°51'5 8.3
2014-Jul-21 20:00N 37°31' E 024°56'4 8.8
2014-Jul-21 19:33N 37°27' E 024°58'1 1.3
2014-Jul-21 18:33N 37°26' E 024°57'0 0.0
2014-Jul-21 17:33N 37°26' E 024°57'0 0.0
2014-Jul-21 16:32N 37°26' E 024°57'0 0.0
2014-Jul-21 15:33N 37°26' E 024°57'0 0.0
2014-Jul-21 14:33N 37°26' E 024°57'0 0.0
2014-Jul-21 13:32N 37°26' E 024°57'0 0.0
2014-Jul-21 12:33N 37°26' E 024°57'0 0.0
2014-Jul-21 11:32N 37°26' E 024°57'0 0.0
2014-Jul-21 10:33N 37°26' E 024°57'0 0.0
2014-Jul-21 09:33N 37°26' E 024°57'0 0.0
2014-Jul-21 08:32N 37°26' E 024°57'0 0.0
2014-Jul-21 07:33N 37°26' E 024°57'0 0.0
2014-Jul-21 06:32N 37°26' E 024°57'0 0.0
2014-Jul-21 05:33N 37°26' E 024°57'1 1.4
2014-Jul-21 04:33N 37°25' E 024°58'2 1.8
2014-Jul-21 03:33N 37°26' E 024°56'6 5.7
2014-Jul-21 02:33N 37°27' E 025°03'9 9.4
2014-Jul-21 01:33N 37°27' E 025°15'3 3.5
2014-Jul-21 00:33N 37°28' E 025°20'0 0.0
2014-Jul-20 23:33N 37°28' E 025°20'0 0.0
2014-Jul-20 22:33N 37°28' E 025°20'0 0.0
2014-Jul-20 21:33N 37°28' E 025°20'0 0.0
2014-Jul-20 20:33N 37°28' E 025°20'0 0.0
2014-Jul-20 19:33N 37°28' E 025°20'4 3.8
2014-Jul-20 18:33N 37°28' E 025°15'8 7.5
2014-Jul-20 17:32N 37°32' E 025°07'9 8.4
2014-Jul-20 16:27N 37°38' E 024°58'  
2014-Jul-17 08:21N 37°38' E 025°22'6 7.0
2014-Jul-17 07:33N 37°33' E 025°19'5 4.7
2014-Jul-17 06:32N 37°28' E 025°20'0 0.0
2014-Jul-17 05:31N 37°28' E 025°20'0 0.0
2014-Jul-17 04:33N 37°28' E 025°20'0 0.0
2014-Jul-17 03:32N 37°28' E 025°20'2 2.1
2014-Jul-17 02:33N 37°27' E 025°17'7 7.1
2014-Jul-17 01:33N 37°20' E 025°18'8 8.2
2014-Jul-17 00:33N 37°12' E 025°21'5 5.4
2014-Jul-16 23:33N 37°06' E 025°22'0 0.0
2014-Jul-16 22:32N 37°06' E 025°22'0 0.0
2014-Jul-16 21:32N 37°06' E 025°22'0 0.3
2014-Jul-16 20:33N 37°06' E 025°22'0 0.3
2014-Jul-16 19:33N 37°06' E 025°22'0 0.0
2014-Jul-16 18:33N 37°06' E 025°22'0 0.0
2014-Jul-16 17:30N 37°06' E 025°22'0 0.0
2014-Jul-16 16:33N 37°06' E 025°22'3 3.2
2014-Jul-16 15:33N 37°09' E 025°20'8 7.7
2014-Jul-16 14:31N 37°08' E 025°09'3 3.0
2014-Jul-16 13:33N 37°05' E 025°09'0 0.0
2014-Jul-16 12:28N 37°05' E 025°09'0 0.0
2014-Jul-16 10:25N 37°05' E 025°09'0 0.0
2014-Jul-16 09:28N 37°05' E 025°09'0 0.0
2014-Jul-16 08:33N 37°05' E 025°09'0 0.0
2014-Jul-16 06:16N 37°05' E 025°09'0 0.0
2014-Jul-16 05:30N 37°05' E 025°09'0 0.0
2014-Jul-16 04:32N 37°05' E 025°09'1 0.6
2014-Jul-16 03:33N 37°05' E 025°08'0 0.0
2014-Jul-16 02:31N 37°05' E 025°08'0 0.0
2014-Jul-16 01:32N 37°05' E 025°08'0 0.0
2014-Jul-16 00:32N 37°05' E 025°08'0 0.2
2014-Jul-15 23:33N 37°05' E 025°08'8 7.4
2014-Jul-15 22:32N 37°13' E 025°08'8 8.0
2014-Jul-15 21:33N 37°21' E 025°08'9 8.9
2014-Jul-15 20:33N 37°30' E 025°09'3 2.7
2014-Jul-15 19:33N 37°32' E 025°09'0 0.0
2014-Jul-15 18:32N 37°32' E 025°09'0 0.0
2014-Jul-15 17:33N 37°32' E 025°09'0 0.0
2014-Jul-15 16:33N 37°32' E 025°09'7 6.8
2014-Jul-15 15:33N 37°29' E 025°02'5 5.1
2014-Jul-15 14:31N 37°26' E 024°56'0 0.0
2014-Jul-15 13:33N 37°26' E 024°56'0 0.0
2014-Jul-15 12:33N 37°26' E 024°56'0 0.0
2014-Jul-15 11:33N 37°26' E 024°56'0 0.0
2014-Jul-15 10:33N 37°26' E 024°56'7 5.1
2014-Jul-15 09:14N 37°31' E 024°51'6 8.5
2014-Jul-15 08:33N 37°31' E 024°44'9 8.5
2014-Jul-15 07:32N 37°31' E 024°33'42 8.5
2014-Jul-15 02:33N 37°42' E 023°41'9 8.9
2014-Jul-15 01:33N 37°49' E 023°36'  

Dump ship's entire track history